createdAt,value
2019-03-26T00:00:57.820Z,0.80
2019-03-26T00:03:26.255Z,1.93
2019-03-26T00:05:54.658Z,1.40
2019-03-26T00:08:23.102Z,1.10
2019-03-26T00:10:51.590Z,1.37
2019-03-26T00:13:20.006Z,1.50
2019-03-26T00:15:48.452Z,0.83
2019-03-26T00:18:16.870Z,1.20
2019-03-26T00:20:45.311Z,1.13
2019-03-26T00:23:13.726Z,1.77
2019-03-26T00:25:42.171Z,1.20
2019-03-26T00:28:10.587Z,0.90
2019-03-26T00:30:39.018Z,1.57
2019-03-26T00:33:07.441Z,1.50
2019-03-26T00:35:35.881Z,1.67
2019-03-26T00:38:04.326Z,2.47
2019-03-26T00:40:32.746Z,1.00
2019-03-26T00:43:01.253Z,1.97
2019-03-26T00:45:29.668Z,0.73
2019-03-26T00:47:58.081Z,0.83
2019-03-26T00:50:26.508Z,1.50
2019-03-26T00:52:54.918Z,1.50
2019-03-26T00:55:23.438Z,1.33
2019-03-26T00:57:51.877Z,1.87
2019-03-26T01:00:37.275Z,1.10
2019-03-26T01:03:06.755Z,1.10
2019-03-26T01:05:35.161Z,2.67
2019-03-26T01:08:03.667Z,0.90
2019-03-26T01:10:32.072Z,2.03
2019-03-26T01:13:00.524Z,0.83
2019-03-26T01:15:28.963Z,1.17
2019-03-26T01:17:57.417Z,2.40
2019-03-26T01:20:25.834Z,0.57
2019-03-26T01:22:54.246Z,1.27
2019-03-26T01:25:22.669Z,0.77
2019-03-26T01:27:51.072Z,1.03
2019-03-26T01:30:19.506Z,1.60
2019-03-26T01:32:47.908Z,1.20
2019-03-26T01:35:16.333Z,2.00
2019-03-26T01:37:44.752Z,1.50
2019-03-26T01:40:13.192Z,1.57
2019-03-26T01:42:41.628Z,2.13
2019-03-26T01:45:10.792Z,1.50
2019-03-26T01:47:39.216Z,1.30
2019-03-26T01:50:07.829Z,1.50
2019-03-26T01:52:36.228Z,1.67
2019-03-26T01:55:06.715Z,1.23
2019-03-26T01:57:35.145Z,1.10
2019-03-26T02:00:05.101Z,0.97
2019-03-26T02:02:33.536Z,0.90
2019-03-26T02:05:01.981Z,1.57
2019-03-26T02:07:30.392Z,1.33
2019-03-26T02:09:58.793Z,1.00
2019-03-26T02:12:27.222Z,1.30
2019-03-26T02:14:55.636Z,2.02
2019-03-26T02:17:24.084Z,1.50
2019-03-26T02:19:52.524Z,1.63
2019-03-26T02:22:20.956Z,1.63
2019-03-26T02:24:49.362Z,0.90
2019-03-26T02:27:17.791Z,1.82
2019-03-26T02:29:46.202Z,1.27
2019-03-26T02:32:14.629Z,0.73
2019-03-26T02:34:43.137Z,1.63
2019-03-26T02:37:11.567Z,1.00
2019-03-26T02:39:39.964Z,1.30
2019-03-26T02:42:08.393Z,1.57
2019-03-26T02:44:36.835Z,0.80
2019-03-26T02:47:05.235Z,1.60
2019-03-26T02:49:33.683Z,0.50
2019-03-26T02:52:02.106Z,1.87
2019-03-26T02:54:30.522Z,2.00
2019-03-26T02:56:58.949Z,1.33
2019-03-26T02:59:27.370Z,1.33
2019-03-26T03:01:55.816Z,1.43
2019-03-26T03:04:24.285Z,0.80
2019-03-26T03:06:52.695Z,1.23
2019-03-26T03:09:21.141Z,1.30
2019-03-26T03:11:49.545Z,1.40
2019-03-26T03:14:17.988Z,1.33
2019-03-26T03:16:46.396Z,0.63
2019-03-26T03:19:16.046Z,1.10
2019-03-26T03:21:44.829Z,0.60
2019-03-26T03:24:13.253Z,1.10
2019-03-26T03:26:41.663Z,1.60
2019-03-26T03:29:10.083Z,1.07
2019-03-26T03:31:38.517Z,1.50
2019-03-26T03:34:06.956Z,1.60
2019-03-26T03:36:35.426Z,1.53
2019-03-26T03:39:05.428Z,0.63
2019-03-26T03:41:33.873Z,1.10
2019-03-26T03:44:02.272Z,0.90
2019-03-26T03:46:31.139Z,1.40
2019-03-26T03:49:00.858Z,2.13
2019-03-26T03:51:31.545Z,1.43
2019-03-26T03:54:00.493Z,1.20
2019-03-26T03:56:31.345Z,1.20
2019-03-26T03:59:02.330Z,1.17
2019-03-26T04:01:30.760Z,0.93
2019-03-26T04:03:59.202Z,0.97
2019-03-26T04:06:27.696Z,1.30
2019-03-26T04:08:56.136Z,1.23
2019-03-26T04:11:24.531Z,1.10
2019-03-26T04:13:52.945Z,1.93
2019-03-26T04:16:21.393Z,0.90
2019-03-26T04:18:49.834Z,1.47
2019-03-26T04:21:18.240Z,1.03
2019-03-26T04:23:46.681Z,0.63
2019-03-26T04:26:15.087Z,0.82
2019-03-26T04:28:43.768Z,0.43
2019-03-26T04:31:12.228Z,1.30
2019-03-26T04:33:40.638Z,0.97
2019-03-26T04:36:24.234Z,1.20
2019-03-26T04:38:39.195Z,1.27
2019-03-26T04:41:07.597Z,1.30
2019-03-26T04:43:36.030Z,1.23
2019-03-26T04:46:04.443Z,1.17
2019-03-26T04:48:32.867Z,1.37
2019-03-26T04:51:01.279Z,0.87
2019-03-26T04:53:29.710Z,1.00
2019-03-26T04:55:58.145Z,1.40
2019-03-26T04:58:26.577Z,1.10
2019-03-26T05:00:54.977Z,1.20
2019-03-26T05:03:23.382Z,1.37
2019-03-26T05:05:51.821Z,2.00
2019-03-26T05:08:20.217Z,0.97
2019-03-26T05:10:49.347Z,0.83
2019-03-26T05:13:17.848Z,1.30
2019-03-26T05:15:46.330Z,1.47
2019-03-26T05:18:14.751Z,0.87
2019-03-26T05:20:43.175Z,1.00
2019-03-26T05:23:11.574Z,3.00
2019-03-26T05:25:40.007Z,1.07
2019-03-26T05:28:08.416Z,1.03
2019-03-26T05:30:36.818Z,1.80
2019-03-26T05:33:05.244Z,1.03
2019-03-26T05:35:33.731Z,1.13
2019-03-26T05:38:02.158Z,0.97
2019-03-26T05:40:30.562Z,1.00
2019-03-26T05:42:58.969Z,1.67
2019-03-26T05:45:27.394Z,0.73
2019-03-26T05:47:55.840Z,1.03
2019-03-26T05:50:24.268Z,0.83
2019-03-26T05:52:52.702Z,1.17
2019-03-26T05:55:21.201Z,0.77
2019-03-26T05:57:49.616Z,0.77
2019-03-26T06:00:20.236Z,1.37
2019-03-26T06:02:48.713Z,1.50
2019-03-26T06:05:17.136Z,1.40
2019-03-26T06:07:45.568Z,1.02
2019-03-26T06:10:14.422Z,1.17
2019-03-26T06:12:42.868Z,0.77
2019-03-26T06:15:11.530Z,1.03
2019-03-26T06:17:40.084Z,2.37
2019-03-26T06:20:10.144Z,1.10
2019-03-26T06:22:38.648Z,0.60
2019-03-26T06:25:08.121Z,1.30
2019-03-26T06:27:36.530Z,0.77
2019-03-26T06:30:07.574Z,1.90
2019-03-26T06:32:35.980Z,1.80
2019-03-26T06:35:08.349Z,1.37
2019-03-26T06:37:36.915Z,1.57
2019-03-26T06:40:07.852Z,1.00
2019-03-26T06:42:36.291Z,0.57
2019-03-26T06:45:07.769Z,0.90
2019-03-26T06:47:36.207Z,1.00
2019-03-26T06:50:07.287Z,1.40
2019-03-26T06:52:35.711Z,2.13
2019-03-26T06:55:06.066Z,2.03
2019-03-26T06:57:35.858Z,1.35
2019-03-26T07:00:07.879Z,1.73
2019-03-26T07:02:36.490Z,0.83
2019-03-26T07:05:06.220Z,1.60
2019-03-26T07:07:34.651Z,2.00
2019-03-26T07:10:04.455Z,1.40
2019-03-26T07:12:32.866Z,1.07
2019-03-26T07:15:01.297Z,1.70
2019-03-26T07:17:30.590Z,1.00
2019-03-26T07:19:59.022Z,0.90
2019-03-26T07:22:27.479Z,1.80
2019-03-26T07:24:55.932Z,1.47
2019-03-26T07:27:24.352Z,1.67
2019-03-26T07:29:52.941Z,2.60
2019-03-26T07:32:21.347Z,1.65
2019-03-26T07:34:49.808Z,1.17
2019-03-26T07:37:18.222Z,1.12
2019-03-26T07:39:46.674Z,1.70
2019-03-26T07:42:15.092Z,2.42
2019-03-26T07:44:45.428Z,0.78
2019-03-26T07:47:13.656Z,1.95
2019-03-26T07:49:42.060Z,1.52
2019-03-26T07:52:10.484Z,1.90
2019-03-26T07:54:38.945Z,1.98
2019-03-26T07:57:07.344Z,1.20
2019-03-26T07:59:35.750Z,1.42
2019-03-26T08:02:04.248Z,1.60
2019-03-26T08:04:32.689Z,1.00
2019-03-26T08:07:01.100Z,1.45
2019-03-26T08:09:31.710Z,0.72
2019-03-26T08:11:59.869Z,1.47
2019-03-26T08:14:28.338Z,1.50
2019-03-26T08:16:56.777Z,1.12
2019-03-26T08:19:25.170Z,2.92
2019-03-26T08:21:53.616Z,1.55
2019-03-26T08:24:22.033Z,2.30
2019-03-26T08:26:52.023Z,1.15
2019-03-26T08:29:20.768Z,1.07
2019-03-26T08:31:49.186Z,1.85
2019-03-26T08:34:17.628Z,1.62
2019-03-26T08:36:46.034Z,1.10
2019-03-26T08:39:14.463Z,2.10
2019-03-26T08:41:42.882Z,1.32
2019-03-26T08:44:11.341Z,2.62
2019-03-26T08:46:39.746Z,2.42
2019-03-26T08:49:08.178Z,2.55
2019-03-26T08:51:36.623Z,1.60
2019-03-26T08:54:05.180Z,1.20
2019-03-26T08:56:33.585Z,2.52
2019-03-26T08:59:02.028Z,1.35
2019-03-26T09:01:30.464Z,2.90
2019-03-26T09:03:58.876Z,1.87
2019-03-26T09:06:27.310Z,1.67
2019-03-26T09:08:55.713Z,1.75
2019-03-26T09:11:24.135Z,2.40
2019-03-26T09:13:52.562Z,2.30
2019-03-26T09:16:20.980Z,1.80
2019-03-26T09:18:49.423Z,2.12
2019-03-26T09:21:17.830Z,1.47
2019-03-26T09:23:46.261Z,1.87
2019-03-26T09:26:14.666Z,2.20
2019-03-26T09:28:43.094Z,3.00
2019-03-26T09:31:11.517Z,1.22
2019-03-26T09:33:39.955Z,1.22
2019-03-26T09:36:08.370Z,3.27
2019-03-26T09:38:39.205Z,1.45
2019-03-26T09:41:07.035Z,2.05
2019-03-26T09:43:35.482Z,1.32
2019-03-26T09:46:03.915Z,1.55
2019-03-26T09:48:32.338Z,2.35
2019-03-26T09:51:00.776Z,1.60
2019-03-26T09:53:29.205Z,1.75
2019-03-26T09:55:57.598Z,3.33
2019-03-26T09:58:26.055Z,2.00
2019-03-26T10:00:54.499Z,1.15
2019-03-26T10:03:22.906Z,1.47
2019-03-26T10:05:51.318Z,3.30
2019-03-26T10:08:19.765Z,1.05
2019-03-26T10:10:48.189Z,0.65
2019-03-26T10:13:16.629Z,2.05
2019-03-26T10:15:45.044Z,1.57
2019-03-26T10:18:13.486Z,2.35
2019-03-26T10:20:41.901Z,1.82
2019-03-26T10:23:10.346Z,2.90
2019-03-26T10:25:38.758Z,2.22
2019-03-26T10:28:07.256Z,2.33
2019-03-26T10:30:39.648Z,1.95
2019-03-26T10:33:09.411Z,2.17
2019-03-26T10:35:38.042Z,1.92
2019-03-26T10:38:06.665Z,2.45
2019-03-26T10:40:37.616Z,4.33
2019-03-26T10:43:06.699Z,6.65
2019-03-26T10:45:35.100Z,4.90
2019-03-26T10:48:03.656Z,6.00
2019-03-26T10:50:32.138Z,2.30
2019-03-26T10:53:00.564Z,4.97
2019-03-26T10:55:29.008Z,8.98
2019-03-26T10:57:57.512Z,6.78
2019-03-26T11:00:26.105Z,3.45
2019-03-26T11:02:54.806Z,3.85
2019-03-26T11:05:23.431Z,7.33
2019-03-26T11:07:51.847Z,7.15
2019-03-26T11:10:20.288Z,11.45
2019-03-26T11:12:48.784Z,7.62
2019-03-26T11:15:17.343Z,7.97
2019-03-26T11:17:45.791Z,3.98
2019-03-26T11:20:14.760Z,6.40
2019-03-26T11:22:43.259Z,7.35
2019-03-26T11:25:12.415Z,5.92
2019-03-26T11:27:41.071Z,5.80
2019-03-26T11:30:09.023Z,6.25
2019-03-26T11:32:37.856Z,4.35
2019-03-26T11:35:07.754Z,4.42
2019-03-26T11:37:36.829Z,4.33
2019-03-26T11:40:07.718Z,4.47
2019-03-26T11:42:36.165Z,5.72
2019-03-26T11:45:07.740Z,6.05
2019-03-26T11:47:36.367Z,4.47
2019-03-26T11:50:05.615Z,5.20
2019-03-26T11:52:34.323Z,5.50
2019-03-26T11:55:03.017Z,4.40
2019-03-26T11:57:31.472Z,4.35
2019-03-26T11:59:59.902Z,4.25
2019-03-26T12:02:28.400Z,7.00
2019-03-26T12:04:57.009Z,4.65
2019-03-26T12:07:25.481Z,3.55
2019-03-26T12:09:53.965Z,5.53
2019-03-26T12:12:22.390Z,5.20
2019-03-26T12:14:50.820Z,4.83
2019-03-26T12:17:19.233Z,5.10
2019-03-26T12:19:47.699Z,3.50
2019-03-26T12:22:16.118Z,5.50
2019-03-26T12:24:44.553Z,5.10
2019-03-26T12:27:12.985Z,4.05
2019-03-26T12:29:41.454Z,5.35
2019-03-26T12:32:09.835Z,4.55
2019-03-26T12:34:38.347Z,4.67
2019-03-26T12:37:06.767Z,4.72
2019-03-26T12:39:35.223Z,5.08
2019-03-26T12:42:03.741Z,7.37
2019-03-26T12:44:32.141Z,3.83
2019-03-26T12:47:00.573Z,5.60
2019-03-26T12:49:29.021Z,5.08
2019-03-26T12:51:57.517Z,9.70
2019-03-26T12:54:25.937Z,6.90
2019-03-26T12:56:54.394Z,7.15
2019-03-26T12:59:22.800Z,5.33
2019-03-26T13:01:51.246Z,10.20
2019-03-26T13:04:19.670Z,7.80
2019-03-26T13:06:49.702Z,4.95
2019-03-26T13:09:18.135Z,8.08
2019-03-26T13:11:46.581Z,8.80
2019-03-26T13:14:14.988Z,9.15
2019-03-26T13:16:43.435Z,5.25
2019-03-26T13:19:11.849Z,7.22
2019-03-26T13:21:40.284Z,9.70
2019-03-26T13:24:11.282Z,22.58
2019-03-26T13:26:38.876Z,10.40
2019-03-26T13:29:07.311Z,9.30
2019-03-26T13:31:35.783Z,9.08
2019-03-26T13:34:04.274Z,16.93
2019-03-26T13:36:32.709Z,18.25
2019-03-26T13:39:01.135Z,12.35
2019-03-26T13:41:29.593Z,18.05
2019-03-26T13:43:58.021Z,13.65
2019-03-26T13:46:26.461Z,8.08
2019-03-26T13:48:54.884Z,11.83
2019-03-26T13:51:23.327Z,28.12
2019-03-26T13:53:51.752Z,43.38
2019-03-26T13:56:20.192Z,93.67
2019-03-26T13:58:48.653Z,125.27
2019-03-26T14:01:17.075Z,115.42
2019-03-26T14:03:45.508Z,140.75
2019-03-26T14:06:13.956Z,178.20
2019-03-26T14:08:42.412Z,132.90
2019-03-26T14:11:10.835Z,111.92
2019-03-26T14:13:39.266Z,106.92
2019-03-26T14:16:07.678Z,73.42
2019-03-26T14:18:36.118Z,85.50
2019-03-26T14:21:04.618Z,70.92
2019-03-26T14:23:33.067Z,63.83
2019-03-26T14:26:01.491Z,53.02
2019-03-26T14:28:29.935Z,46.25
2019-03-26T14:30:58.352Z,41.48
2019-03-26T14:33:26.878Z,53.40
2019-03-26T14:35:55.307Z,48.85
2019-03-26T14:38:23.740Z,45.92
2019-03-26T14:40:55.217Z,35.17
2019-03-26T14:43:22.340Z,27.07
2019-03-26T14:45:50.931Z,41.28
2019-03-26T14:48:19.349Z,43.70
2019-03-26T14:50:47.763Z,39.33
2019-03-26T14:53:16.193Z,27.82
2019-03-26T14:55:44.614Z,31.52
2019-03-26T14:58:13.126Z,32.25
2019-03-26T15:00:41.637Z,28.38
2019-03-26T15:03:10.060Z,27.32
2019-03-26T15:05:38.492Z,17.45
2019-03-26T15:08:06.918Z,21.17
2019-03-26T15:10:35.382Z,20.75
2019-03-26T15:13:03.787Z,19.25
2019-03-26T15:15:32.223Z,16.07
2019-03-26T15:18:00.643Z,12.35
2019-03-26T15:20:29.144Z,11.53
2019-03-26T15:22:58.167Z,11.03
2019-03-26T15:25:26.715Z,19.77
2019-03-26T15:27:55.238Z,35.95
2019-03-26T15:30:23.752Z,19.17
2019-03-26T15:32:52.190Z,15.65
2019-03-26T15:35:20.658Z,11.38
2019-03-26T15:37:49.070Z,10.53
2019-03-26T15:40:17.560Z,21.75
2019-03-26T15:42:45.994Z,21.23
2019-03-26T15:45:14.992Z,27.58
2019-03-26T15:47:43.505Z,28.83
2019-03-26T15:50:12.486Z,30.80
2019-03-26T15:52:42.385Z,23.45
2019-03-26T15:55:11.194Z,28.30
2019-03-26T15:57:39.676Z,21.30
2019-03-26T16:00:08.663Z,21.97
2019-03-26T16:02:37.090Z,24.02
2019-03-26T16:05:07.370Z,25.35
2019-03-26T16:07:35.791Z,20.80
2019-03-26T16:10:06.082Z,18.75
2019-03-26T16:12:41.121Z,56.05
2019-03-26T16:15:06.598Z,44.10
2019-03-26T16:17:35.045Z,137.40
2019-03-26T16:20:04.614Z,76.97
2019-03-26T16:22:33.136Z,66.80
2019-03-26T16:25:01.561Z,72.05
2019-03-26T16:27:30.006Z,65.30
2019-03-26T16:29:58.462Z,57.95
2019-03-26T16:32:26.882Z,58.45
2019-03-26T16:34:55.299Z,55.15
2019-03-26T16:37:23.740Z,65.37
2019-03-26T16:39:52.172Z,44.33
2019-03-26T16:42:20.624Z,35.08
2019-03-26T16:44:49.064Z,53.02
2019-03-26T16:47:17.520Z,42.60
2019-03-26T16:49:45.968Z,51.53
2019-03-26T16:52:14.458Z,51.95
2019-03-26T16:54:42.921Z,49.53
2019-03-26T16:57:11.342Z,78.70
2019-03-26T16:59:39.836Z,65.95
2019-03-26T17:02:08.328Z,58.00
2019-03-26T17:04:36.751Z,60.85
2019-03-26T17:07:05.749Z,60.98
2019-03-26T17:09:34.257Z,66.82
2019-03-26T17:12:03.786Z,66.87
2019-03-26T17:14:32.408Z,62.30
2019-03-26T17:17:00.843Z,51.05
2019-03-26T17:19:32.465Z,68.07
2019-03-26T17:21:59.576Z,62.17
2019-03-26T17:24:28.061Z,115.45
2019-03-26T17:26:56.503Z,169.60
2019-03-26T17:29:24.935Z,152.40
2019-03-26T17:31:53.389Z,269.20
2019-03-26T17:34:21.895Z,169.60
2019-03-26T17:36:50.351Z,127.07
2019-03-26T17:39:18.763Z,93.55
2019-03-26T17:41:47.267Z,135.95
2019-03-26T17:44:15.717Z,142.70
2019-03-26T17:46:44.235Z,143.25
2019-03-26T17:49:12.661Z,138.20
2019-03-26T17:51:41.310Z,134.78
2019-03-26T17:54:09.706Z,131.30
2019-03-26T17:56:38.156Z,141.47
2019-03-26T17:59:06.680Z,140.62
2019-03-26T18:01:35.138Z,130.57
2019-03-26T18:04:03.571Z,107.90
2019-03-26T18:06:32.062Z,113.75
2019-03-26T18:09:00.497Z,101.07
2019-03-26T18:11:28.960Z,97.10
2019-03-26T18:13:57.405Z,79.90
2019-03-26T18:16:25.853Z,77.67
2019-03-26T18:18:55.104Z,59.53
2019-03-26T18:21:23.511Z,54.65
2019-03-26T18:23:51.961Z,54.75
2019-03-26T18:26:20.383Z,67.37
2019-03-26T18:28:48.835Z,53.80
2019-03-26T18:31:17.253Z,39.18
2019-03-26T18:33:45.721Z,48.90
2019-03-26T18:36:14.144Z,48.65
2019-03-26T18:38:42.586Z,46.15
2019-03-26T18:41:11.032Z,35.08
2019-03-26T18:43:39.557Z,58.63
2019-03-26T18:46:08.108Z,96.10
2019-03-26T18:48:36.541Z,86.55
2019-03-26T18:51:05.037Z,58.17
2019-03-26T18:53:33.557Z,58.08
2019-03-26T18:56:02.005Z,34.15
2019-03-26T18:58:30.493Z,32.28
2019-03-26T19:00:58.931Z,26.07
2019-03-26T19:03:27.350Z,62.17
2019-03-26T19:05:55.763Z,63.52
2019-03-26T19:08:24.205Z,65.78
2019-03-26T19:10:52.640Z,94.70
2019-03-26T19:13:21.083Z,100.20
2019-03-26T19:15:49.534Z,101.73
2019-03-26T19:18:17.987Z,110.08
2019-03-26T19:20:46.402Z,87.33
2019-03-26T19:23:14.888Z,65.67
2019-03-26T19:25:43.341Z,69.62
2019-03-26T19:28:11.790Z,49.18
2019-03-26T19:30:40.252Z,40.08
2019-03-26T19:33:08.679Z,44.67
2019-03-26T19:35:37.101Z,33.80
2019-03-26T19:38:05.539Z,27.73
2019-03-26T19:40:33.951Z,27.23
2019-03-26T19:43:10.597Z,28.55
2019-03-26T19:45:32.615Z,29.35
2019-03-26T19:48:01.051Z,24.67
2019-03-26T19:50:29.470Z,31.80
2019-03-26T19:52:57.915Z,29.12
2019-03-26T19:55:26.332Z,40.38
2019-03-26T19:57:54.850Z,42.60
2019-03-26T20:00:23.376Z,28.47
2019-03-26T20:02:51.832Z,35.05
2019-03-26T20:05:20.267Z,30.60
2019-03-26T20:07:48.707Z,28.45
2019-03-26T20:10:18.038Z,22.37
2019-03-26T20:12:46.495Z,23.80
2019-03-26T20:15:15.700Z,27.95
2019-03-26T20:17:44.098Z,29.10
2019-03-26T20:20:13.221Z,30.48
2019-03-26T20:22:41.634Z,22.27
2019-03-26T20:25:10.513Z,20.10
2019-03-26T20:27:38.977Z,20.72
2019-03-26T20:30:09.357Z,23.50
2019-03-26T20:32:37.799Z,20.27
2019-03-26T20:35:07.760Z,20.03
2019-03-26T20:37:36.209Z,15.60
2019-03-26T20:40:09.288Z,13.60
2019-03-26T20:42:38.448Z,20.90
2019-03-26T20:45:09.600Z,21.60
2019-03-26T20:47:38.202Z,17.80
2019-03-26T20:50:07.668Z,23.47
2019-03-26T20:52:36.367Z,15.87
2019-03-26T20:55:07.023Z,15.10
2019-03-26T20:57:37.265Z,22.05
2019-03-26T21:00:08.170Z,12.37
2019-03-26T21:02:36.597Z,19.83
2019-03-26T21:05:07.877Z,18.37
2019-03-26T21:07:37.622Z,17.97
2019-03-26T21:10:07.412Z,16.33
2019-03-26T21:12:35.847Z,27.40
2019-03-26T21:15:09.102Z,17.55
2019-03-26T21:17:38.076Z,17.10
2019-03-26T21:20:09.040Z,14.98
2019-03-26T21:22:37.624Z,17.40
2019-03-26T21:25:07.804Z,14.05
2019-03-26T21:27:36.245Z,15.90
2019-03-26T21:30:12.523Z,15.75
2019-03-26T21:32:39.977Z,14.10
2019-03-26T21:35:09.044Z,22.43
2019-03-26T21:37:38.819Z,15.15
2019-03-26T21:40:09.092Z,16.67
2019-03-26T21:42:37.509Z,14.25
2019-03-26T21:45:08.288Z,11.57
2019-03-26T21:47:36.969Z,14.05
2019-03-26T21:50:06.160Z,16.67
2019-03-26T21:52:34.566Z,13.33
2019-03-26T21:55:03.156Z,14.27
2019-03-26T21:57:31.594Z,12.53
2019-03-26T22:00:00.013Z,12.80
2019-03-26T22:02:28.446Z,14.30
2019-03-26T22:04:56.924Z,12.13
2019-03-26T22:07:25.336Z,12.40
2019-03-26T22:09:53.782Z,12.35
2019-03-26T22:12:22.212Z,11.40
2019-03-26T22:14:50.651Z,13.93
2019-03-26T22:17:19.346Z,14.70
2019-03-26T22:19:47.789Z,16.45
2019-03-26T22:22:16.212Z,13.28
2019-03-26T22:24:44.644Z,14.78
2019-03-26T22:27:13.066Z,13.15
2019-03-26T22:29:41.478Z,13.60
2019-03-26T22:32:09.924Z,13.90
2019-03-26T22:34:38.340Z,14.05
2019-03-26T22:37:06.774Z,11.97
2019-03-26T22:39:35.199Z,12.07
2019-03-26T22:42:03.702Z,10.45
2019-03-26T22:44:32.115Z,11.87
2019-03-26T22:47:00.556Z,10.60
2019-03-26T22:49:28.968Z,8.75
2019-03-26T22:51:57.461Z,12.33
2019-03-26T22:54:25.920Z,10.33
2019-03-26T22:56:54.338Z,10.88
2019-03-26T22:59:22.804Z,8.95
2019-03-26T23:01:51.290Z,11.27
2019-03-26T23:04:20.266Z,12.03
2019-03-26T23:06:48.719Z,10.93
2019-03-26T23:09:17.168Z,11.63
2019-03-26T23:11:45.693Z,12.15
2019-03-26T23:14:14.255Z,11.47
2019-03-26T23:16:42.873Z,11.25
2019-03-26T23:19:11.289Z,11.83
2019-03-26T23:21:39.744Z,10.53
2019-03-26T23:24:08.185Z,10.70
2019-03-26T23:26:36.629Z,14.25
2019-03-26T23:29:07.879Z,10.08
2019-03-26T23:31:35.227Z,8.00
2019-03-26T23:34:03.642Z,8.90
2019-03-26T23:36:32.081Z,9.80
2019-03-26T23:39:00.564Z,9.10
2019-03-26T23:41:28.967Z,11.33
2019-03-26T23:43:57.387Z,12.70
2019-03-26T23:46:25.820Z,10.28
2019-03-26T23:48:54.252Z,11.30
2019-03-26T23:51:22.683Z,9.60
2019-03-26T23:53:51.117Z,9.80
2019-03-26T23:56:19.534Z,9.50
2019-03-26T23:58:47.993Z,10.57
